KOJC/OJC METAR and TAF weather

Enter ICAO airport designator
Station Type Date Time Source
KOJC METAR 2020/07/04 01:53 UTC NOAA

KOJC 040153Z 35003KT 10SM CLR 24/24 A2999 RMK AO2 SLP142 T02440244 $


Station Type Date Time Source
KOJC Decoded METAR 2020/07/04 01:53 UTC NOAA

OLATHE JOHNSON CO EXECUTIVE, KS, United States (KOJC) 38-50N 94-44W 326M
Jul 03, 2020 - 09:53 PM EDT / 2020.07.04 0153 UTC
Wind: from the N (350 degrees) at 3 MPH (3 KT):0
Visibility: 10 mile(s):0
Sky conditions: clear
Temperature: 75.9 F (24.4 C)
Dew Point: 75.9 F (24.4 C)
Relative Humidity: 100%
Pressure (altimeter): 29.99 in. Hg (1015 hPa)
ob: KOJC 040153Z 35003KT 10SM CLR 24/24 A2999 RMK AO2 SLP142 T02440244
cycle: 2

Station Type Date Time Source
KOJC TAF UTC NOAA

Error!

Example: see airport list